sensor_id;sensor_type;location;lat;lon;timestamp;P1;durP1;ratioP1;P2;durP2;ratioP2
51724;SDS011;37801;53.224;6.552;2023-12-20T00:01:39;15.48;;;3.70;;
51724;SDS011;37801;53.224;6.552;2023-12-20T00:04:05;11.68;;;3.25;;
51724;SDS011;37801;53.224;6.552;2023-12-20T00:06:31;12.43;;;3.53;;
51724;SDS011;37801;53.224;6.552;2023-12-20T00:08:58;9.68;;;2.88;;
51724;SDS011;37801;53.224;6.552;2023-12-20T00:11:24;11.02;;;2.80;;
51724;SDS011;37801;53.224;6.552;2023-12-20T00:13:50;10.23;;;2.17;;
51724;SDS011;37801;53.224;6.552;2023-12-20T00:16:16;13.60;;;2.40;;
51724;SDS011;37801;53.224;6.552;2023-12-20T00:18:42;14.50;;;2.50;;
51724;SDS011;37801;53.224;6.552;2023-12-20T00:21:08;10.13;;;2.22;;
51724;SDS011;37801;53.224;6.552;2023-12-20T00:23:35;11.10;;;2.25;;
51724;SDS011;37801;53.224;6.552;2023-12-20T00:26:01;8.85;;;1.80;;
51724;SDS011;37801;53.224;6.552;2023-12-20T00:28:27;13.32;;;2.15;;
51724;SDS011;37801;53.224;6.552;2023-12-20T00:30:53;10.80;;;2.20;;
51724;SDS011;37801;53.224;6.552;2023-12-20T00:33:19;15.02;;;2.10;;
51724;SDS011;37801;53.224;6.552;2023-12-20T00:35:45;12.32;;;2.30;;
51724;SDS011;37801;53.224;6.552;2023-12-20T00:38:11;9.82;;;1.77;;
51724;SDS011;37801;53.224;6.552;2023-12-20T00:40:37;17.42;;;2.35;;
51724;SDS011;37801;53.224;6.552;2023-12-20T00:43:03;10.73;;;2.25;;
51724;SDS011;37801;53.224;6.552;2023-12-20T00:45:30;12.07;;;2.53;;
51724;SDS011;37801;53.224;6.552;2023-12-20T00:47:56;15.18;;;2.30;;
51724;SDS011;37801;53.224;6.552;2023-12-20T00:50:22;11.38;;;2.00;;
51724;SDS011;37801;53.224;6.552;2023-12-20T00:52:48;15.10;;;2.70;;
51724;SDS011;37801;53.224;6.552;2023-12-20T00:55:14;15.38;;;2.22;;
51724;SDS011;37801;53.224;6.552;2023-12-20T00:57:40;13.73;;;1.88;;
51724;SDS011;37801;53.224;6.552;2023-12-20T01:00:06;10.10;;;2.17;;
51724;SDS011;37801;53.224;6.552;2023-12-20T01:02:35;10.35;;;2.25;;
51724;SDS011;37801;53.224;6.552;2023-12-20T01:05:01;17.48;;;2.35;;
51724;SDS011;37801;53.224;6.552;2023-12-20T01:07:27;10.43;;;2.35;;
51724;SDS011;37801;53.224;6.552;2023-12-20T01:09:54;14.57;;;2.10;;
51724;SDS011;37801;53.224;6.552;2023-12-20T01:12:20;11.75;;;1.95;;
51724;SDS011;37801;53.224;6.552;2023-12-20T01:14:49;8.00;;;1.80;;
51724;SDS011;37801;53.224;6.552;2023-12-20T01:17:15;19.05;;;3.45;;
51724;SDS011;37801;53.224;6.552;2023-12-20T01:19:41;13.75;;;2.10;;
51724;SDS011;37801;53.224;6.552;2023-12-20T01:22:07;14.25;;;2.45;;
51724;SDS011;37801;53.224;6.552;2023-12-20T01:24:33;7.65;;;1.92;;
51724;SDS011;37801;53.224;6.552;2023-12-20T01:26:59;14.52;;;2.72;;
51724;SDS011;37801;53.224;6.552;2023-12-20T01:29:26;11.27;;;2.42;;
51724;SDS011;37801;53.224;6.552;2023-12-20T01:31:52;16.00;;;2.85;;
51724;SDS011;37801;53.224;6.552;2023-12-20T01:34:18;9.63;;;2.28;;
51724;SDS011;37801;53.224;6.552;2023-12-20T01:36:44;11.93;;;2.15;;
51724;SDS011;37801;53.224;6.552;2023-12-20T01:39:10;14.15;;;2.95;;
51724;SDS011;37801;53.224;6.552;2023-12-20T01:41:36;16.02;;;3.10;;
51724;SDS011;37801;53.224;6.552;2023-12-20T01:44:02;19.42;;;3.75;;
51724;SDS011;37801;53.224;6.552;2023-12-20T01:46:29;16.23;;;2.90;;
51724;SDS011;37801;53.224;6.552;2023-12-20T01:48:55;16.63;;;3.20;;
51724;SDS011;37801;53.224;6.552;2023-12-20T01:51:21;14.30;;;3.28;;
51724;SDS011;37801;53.224;6.552;2023-12-20T01:53:48;16.38;;;3.10;;
51724;SDS011;37801;53.224;6.552;2023-12-20T01:56:15;17.00;;;4.63;;
51724;SDS011;37801;53.224;6.552;2023-12-20T01:58:43;16.75;;;4.95;;
51724;SDS011;37801;53.224;6.552;2023-12-20T02:01:09;18.75;;;3.97;;
51724;SDS011;37801;53.224;6.552;2023-12-20T02:03:36;11.63;;;3.00;;
51724;SDS011;37801;53.224;6.552;2023-12-20T02:06:03;16.52;;;2.60;;
51724;SDS011;37801;53.224;6.552;2023-12-20T02:08:29;13.57;;;2.35;;
51724;SDS011;37801;53.224;6.552;2023-12-20T02:10:55;18.55;;;3.10;;
51724;SDS011;37801;53.224;6.552;2023-12-20T02:13:25;15.85;;;2.40;;
51724;SDS011;37801;53.224;6.552;2023-12-20T02:15:58;14.00;;;3.10;;
51724;SDS011;37801;53.224;6.552;2023-12-20T02:18:24;14.48;;;2.95;;
51724;SDS011;37801;53.224;6.552;2023-12-20T02:20:50;17.63;;;3.13;;
51724;SDS011;37801;53.224;6.552;2023-12-20T02:23:16;13.57;;;4.43;;
51724;SDS011;37801;53.224;6.552;2023-12-20T02:25:43;16.58;;;6.13;;
51724;SDS011;37801;53.224;6.552;2023-12-20T02:28:09;17.92;;;6.03;;
51724;SDS011;37801;53.224;6.552;2023-12-20T02:30:35;16.05;;;5.30;;
51724;SDS011;37801;53.224;6.552;2023-12-20T02:33:01;17.20;;;4.28;;
51724;SDS011;37801;53.224;6.552;2023-12-20T02:35:29;13.63;;;2.83;;
51724;SDS011;37801;53.224;6.552;2023-12-20T02:37:55;13.70;;;2.72;;
51724;SDS011;37801;53.224;6.552;2023-12-20T02:40:21;17.40;;;3.45;;
51724;SDS011;37801;53.224;6.552;2023-12-20T02:42:48;15.98;;;4.43;;
51724;SDS011;37801;53.224;6.552;2023-12-20T02:45:14;21.40;;;4.35;;
51724;SDS011;37801;53.224;6.552;2023-12-20T02:47:40;18.60;;;4.20;;
51724;SDS011;37801;53.224;6.552;2023-12-20T02:50:06;31.10;;;4.35;;
51724;SDS011;37801;53.224;6.552;2023-12-20T02:52:32;18.98;;;3.58;;
51724;SDS011;37801;53.224;6.552;2023-12-20T02:54:58;13.75;;;2.97;;
51724;SDS011;37801;53.224;6.552;2023-12-20T02:57:24;15.65;;;2.88;;
51724;SDS011;37801;53.224;6.552;2023-12-20T02:59:50;22.63;;;4.85;;
51724;SDS011;37801;53.224;6.552;2023-12-20T03:02:17;22.65;;;5.88;;
51724;SDS011;37801;53.224;6.552;2023-12-20T03:04:43;19.90;;;5.40;;
51724;SDS011;37801;53.224;6.552;2023-12-20T03:07:09;23.85;;;5.60;;
51724;SDS011;37801;53.224;6.552;2023-12-20T03:09:37;22.90;;;5.90;;
51724;SDS011;37801;53.224;6.552;2023-12-20T03:12:03;16.92;;;5.25;;
51724;SDS011;37801;53.224;6.552;2023-12-20T03:14:29;23.52;;;4.70;;
51724;SDS011;37801;53.224;6.552;2023-12-20T03:16:55;27.90;;;6.03;;
51724;SDS011;37801;53.224;6.552;2023-12-20T03:19:22;25.30;;;5.57;;
51724;SDS011;37801;53.224;6.552;2023-12-20T03:21:48;25.60;;;6.15;;
51724;SDS011;37801;53.224;6.552;2023-12-20T03:24:14;27.95;;;7.55;;
51724;SDS011;37801;53.224;6.552;2023-12-20T03:26:40;30.45;;;6.68;;
51724;SDS011;37801;53.224;6.552;2023-12-20T03:29:06;42.22;;;7.18;;
51724;SDS011;37801;53.224;6.552;2023-12-20T03:31:32;31.30;;;5.60;;
51724;SDS011;37801;53.224;6.552;2023-12-20T03:33:58;39.50;;;5.28;;
51724;SDS011;37801;53.224;6.552;2023-12-20T03:36:24;23.75;;;4.28;;
51724;SDS011;37801;53.224;6.552;2023-12-20T03:38:50;23.40;;;3.90;;
51724;SDS011;37801;53.224;6.552;2023-12-20T03:41:16;24.27;;;4.03;;
51724;SDS011;37801;53.224;6.552;2023-12-20T03:43:42;28.60;;;4.50;;
51724;SDS011;37801;53.224;6.552;2023-12-20T03:46:08;29.45;;;4.93;;
51724;SDS011;37801;53.224;6.552;2023-12-20T03:48:35;26.35;;;4.45;;
51724;SDS011;37801;53.224;6.552;2023-12-20T03:51:01;16.27;;;3.35;;
51724;SDS011;37801;53.224;6.552;2023-12-20T03:53:27;21.60;;;4.03;;
51724;SDS011;37801;53.224;6.552;2023-12-20T03:55:53;23.90;;;4.63;;
51724;SDS011;37801;53.224;6.552;2023-12-20T03:58:19;28.83;;;4.82;;
51724;SDS011;37801;53.224;6.552;2023-12-20T04:00:45;19.85;;;4.38;;
51724;SDS011;37801;53.224;6.552;2023-12-20T04:03:11;25.13;;;4.68;;
51724;SDS011;37801;53.224;6.552;2023-12-20T04:05:40;26.15;;;6.25;;
51724;SDS011;37801;53.224;6.552;2023-12-20T04:08:07;33.17;;;8.15;;
51724;SDS011;37801;53.224;6.552;2023-12-20T04:10:33;29.50;;;7.70;;
51724;SDS011;37801;53.224;6.552;2023-12-20T04:12:59;30.08;;;7.97;;
51724;SDS011;37801;53.224;6.552;2023-12-20T04:15:25;26.65;;;7.97;;
51724;SDS011;37801;53.224;6.552;2023-12-20T04:17:51;32.28;;;8.02;;
51724;SDS011;37801;53.224;6.552;2023-12-20T04:20:17;29.60;;;8.20;;
51724;SDS011;37801;53.224;6.552;2023-12-20T04:22:43;30.30;;;7.60;;
51724;SDS011;37801;53.224;6.552;2023-12-20T04:25:09;31.65;;;8.48;;
51724;SDS011;37801;53.224;6.552;2023-12-20T04:27:36;33.67;;;8.57;;
51724;SDS011;37801;53.224;6.552;2023-12-20T04:30:02;39.35;;;8.43;;
51724;SDS011;37801;53.224;6.552;2023-12-20T04:32:28;31.23;;;6.47;;
51724;SDS011;37801;53.224;6.552;2023-12-20T04:34:55;26.23;;;6.28;;
51724;SDS011;37801;53.224;6.552;2023-12-20T04:37:21;26.40;;;4.40;;
51724;SDS011;37801;53.224;6.552;2023-12-20T04:39:47;33.88;;;5.40;;
51724;SDS011;37801;53.224;6.552;2023-12-20T04:42:13;22.23;;;4.25;;
51724;SDS011;37801;53.224;6.552;2023-12-20T04:44:39;28.83;;;5.35;;
51724;SDS011;37801;53.224;6.552;2023-12-20T04:47:05;25.70;;;4.35;;
51724;SDS011;37801;53.224;6.552;2023-12-20T04:49:31;21.45;;;4.32;;
51724;SDS011;37801;53.224;6.552;2023-12-20T04:51:58;27.08;;;5.22;;
51724;SDS011;37801;53.224;6.552;2023-12-20T04:54:24;24.02;;;3.97;;
51724;SDS011;37801;53.224;6.552;2023-12-20T04:56:50;31.75;;;5.05;;
51724;SDS011;37801;53.224;6.552;2023-12-20T04:59:16;29.95;;;5.53;;
51724;SDS011;37801;53.224;6.552;2023-12-20T05:01:43;36.28;;;6.32;;
51724;SDS011;37801;53.224;6.552;2023-12-20T05:04:09;33.15;;;5.32;;
51724;SDS011;37801;53.224;6.552;2023-12-20T05:06:36;24.27;;;5.20;;
51724;SDS011;37801;53.224;6.552;2023-12-20T05:09:02;29.92;;;5.88;;
51724;SDS011;37801;53.224;6.552;2023-12-20T05:11:28;38.75;;;6.68;;
51724;SDS011;37801;53.224;6.552;2023-12-20T05:13:54;47.50;;;6.90;;
51724;SDS011;37801;53.224;6.552;2023-12-20T05:16:20;30.15;;;6.45;;
51724;SDS011;37801;53.224;6.552;2023-12-20T05:18:47;21.38;;;5.00;;
51724;SDS011;37801;53.224;6.552;2023-12-20T05:21:15;26.83;;;4.95;;
51724;SDS011;37801;53.224;6.552;2023-12-20T05:23:41;26.63;;;5.05;;
51724;SDS011;37801;53.224;6.552;2023-12-20T05:26:07;24.58;;;4.93;;
51724;SDS011;37801;53.224;6.552;2023-12-20T05:28:33;32.22;;;5.40;;
51724;SDS011;37801;53.224;6.552;2023-12-20T05:30:59;24.95;;;5.57;;
51724;SDS011;37801;53.224;6.552;2023-12-20T05:33:26;22.85;;;5.78;;
51724;SDS011;37801;53.224;6.552;2023-12-20T05:35:52;25.83;;;6.20;;
51724;SDS011;37801;53.224;6.552;2023-12-20T05:38:18;30.45;;;6.28;;
51724;SDS011;37801;53.224;6.552;2023-12-20T05:40:44;29.08;;;5.65;;
51724;SDS011;37801;53.224;6.552;2023-12-20T05:43:10;26.08;;;5.63;;
51724;SDS011;37801;53.224;6.552;2023-12-20T05:45:36;29.88;;;5.15;;
51724;SDS011;37801;53.224;6.552;2023-12-20T05:48:02;27.10;;;4.80;;
51724;SDS011;37801;53.224;6.552;2023-12-20T05:50:28;25.73;;;7.22;;
51724;SDS011;37801;53.224;6.552;2023-12-20T05:52:55;33.05;;;6.95;;
51724;SDS011;37801;53.224;6.552;2023-12-20T05:55:21;33.13;;;7.32;;
51724;SDS011;37801;53.224;6.552;2023-12-20T05:57:47;31.25;;;5.90;;
51724;SDS011;37801;53.224;6.552;2023-12-20T06:00:13;32.22;;;5.60;;
51724;SDS011;37801;53.224;6.552;2023-12-20T06:02:40;29.48;;;5.53;;
51724;SDS011;37801;53.224;6.552;2023-12-20T06:05:06;24.17;;;5.00;;
51724;SDS011;37801;53.224;6.552;2023-12-20T06:07:32;28.50;;;5.45;;
51724;SDS011;37801;53.224;6.552;2023-12-20T06:09:58;32.20;;;4.93;;
51724;SDS011;37801;53.224;6.552;2023-12-20T06:12:24;21.38;;;4.60;;
51724;SDS011;37801;53.224;6.552;2023-12-20T06:14:52;38.40;;;4.95;;
51724;SDS011;37801;53.224;6.552;2023-12-20T06:17:18;21.25;;;4.80;;
51724;SDS011;37801;53.224;6.552;2023-12-20T06:19:44;29.80;;;5.22;;
51724;SDS011;37801;53.224;6.552;2023-12-20T06:22:13;31.52;;;5.65;;
51724;SDS011;37801;53.224;6.552;2023-12-20T06:24:39;28.63;;;5.10;;
51724;SDS011;37801;53.224;6.552;2023-12-20T06:27:05;27.90;;;5.50;;
51724;SDS011;37801;53.224;6.552;2023-12-20T06:29:31;31.60;;;5.68;;
51724;SDS011;37801;53.224;6.552;2023-12-20T06:31:57;28.48;;;4.68;;
51724;SDS011;37801;53.224;6.552;2023-12-20T06:34:24;29.40;;;5.25;;
51724;SDS011;37801;53.224;6.552;2023-12-20T06:36:50;30.27;;;6.72;;
51724;SDS011;37801;53.224;6.552;2023-12-20T06:39:16;37.28;;;5.68;;
51724;SDS011;37801;53.224;6.552;2023-12-20T06:41:42;29.10;;;4.70;;
51724;SDS011;37801;53.224;6.552;2023-12-20T06:44:08;36.35;;;4.93;;
51724;SDS011;37801;53.224;6.552;2023-12-20T06:46:35;33.40;;;5.88;;
51724;SDS011;37801;53.224;6.552;2023-12-20T06:49:01;23.33;;;4.88;;
51724;SDS011;37801;53.224;6.552;2023-12-20T06:51:27;21.30;;;4.97;;
51724;SDS011;37801;53.224;6.552;2023-12-20T06:53:53;32.47;;;5.43;;
51724;SDS011;37801;53.224;6.552;2023-12-20T06:56:19;26.90;;;5.15;;
51724;SDS011;37801;53.224;6.552;2023-12-20T06:58:48;32.90;;;5.97;;
51724;SDS011;37801;53.224;6.552;2023-12-20T07:01:14;26.77;;;5.32;;
51724;SDS011;37801;53.224;6.552;2023-12-20T07:03:41;26.83;;;5.13;;
51724;SDS011;37801;53.224;6.552;2023-12-20T07:06:07;28.45;;;5.25;;
51724;SDS011;37801;53.224;6.552;2023-12-20T07:08:33;31.08;;;5.72;;
51724;SDS011;37801;53.224;6.552;2023-12-20T07:11:00;34.10;;;5.68;;
51724;SDS011;37801;53.224;6.552;2023-12-20T07:13:26;29.52;;;4.72;;
51724;SDS011;37801;53.224;6.552;2023-12-20T07:15:52;33.90;;;5.07;;
51724;SDS011;37801;53.224;6.552;2023-12-20T07:18:18;33.42;;;5.05;;
51724;SDS011;37801;53.224;6.552;2023-12-20T07:20:44;33.33;;;5.28;;
51724;SDS011;37801;53.224;6.552;2023-12-20T07:23:10;32.33;;;5.97;;
51724;SDS011;37801;53.224;6.552;2023-12-20T07:25:36;27.50;;;5.28;;
51724;SDS011;37801;53.224;6.552;2023-12-20T07:28:03;29.42;;;5.63;;
51724;SDS011;37801;53.224;6.552;2023-12-20T07:30:29;30.40;;;6.00;;
51724;SDS011;37801;53.224;6.552;2023-12-20T07:32:56;38.83;;;6.22;;
51724;SDS011;37801;53.224;6.552;2023-12-20T07:35:23;38.05;;;5.80;;
51724;SDS011;37801;53.224;6.552;2023-12-20T07:37:50;36.80;;;6.05;;
51724;SDS011;37801;53.224;6.552;2023-12-20T07:40:16;29.17;;;5.20;;
51724;SDS011;37801;53.224;6.552;2023-12-20T07:42:42;41.58;;;6.00;;
51724;SDS011;37801;53.224;6.552;2023-12-20T07:45:08;36.72;;;6.15;;
51724;SDS011;37801;53.224;6.552;2023-12-20T07:47:35;41.50;;;6.32;;
51724;SDS011;37801;53.224;6.552;2023-12-20T07:50:01;26.50;;;4.60;;
51724;SDS011;37801;53.224;6.552;2023-12-20T07:52:28;35.53;;;5.40;;
51724;SDS011;37801;53.224;6.552;2023-12-20T07:54:54;40.00;;;5.97;;
51724;SDS011;37801;53.224;6.552;2023-12-20T07:57:21;31.48;;;5.38;;
51724;SDS011;37801;53.224;6.552;2023-12-20T07:59:47;32.65;;;6.57;;
51724;SDS011;37801;53.224;6.552;2023-12-20T08:02:13;33.03;;;5.18;;
51724;SDS011;37801;53.224;6.552;2023-12-20T08:04:39;32.70;;;5.47;;
51724;SDS011;37801;53.224;6.552;2023-12-20T08:07:06;31.55;;;5.68;;
51724;SDS011;37801;53.224;6.552;2023-12-20T08:09:32;33.80;;;5.95;;
51724;SDS011;37801;53.224;6.552;2023-12-20T08:12:01;30.10;;;5.03;;
51724;SDS011;37801;53.224;6.552;2023-12-20T08:14:27;40.90;;;6.75;;
51724;SDS011;37801;53.224;6.552;2023-12-20T08:16:53;25.00;;;4.70;;
51724;SDS011;37801;53.224;6.552;2023-12-20T08:19:19;33.47;;;6.32;;
51724;SDS011;37801;53.224;6.552;2023-12-20T08:21:47;39.35;;;5.82;;
51724;SDS011;37801;53.224;6.552;2023-12-20T08:24:13;45.67;;;7.18;;
51724;SDS011;37801;53.224;6.552;2023-12-20T08:26:39;32.78;;;6.20;;
51724;SDS011;37801;53.224;6.552;2023-12-20T08:29:05;37.22;;;5.88;;
51724;SDS011;37801;53.224;6.552;2023-12-20T08:31:31;28.60;;;5.25;;
51724;SDS011;37801;53.224;6.552;2023-12-20T08:33:57;35.47;;;5.40;;
51724;SDS011;37801;53.224;6.552;2023-12-20T08:36:23;30.20;;;5.63;;
51724;SDS011;37801;53.224;6.552;2023-12-20T08:38:49;14.38;;;2.30;;
51724;SDS011;37801;53.224;6.552;2023-12-20T08:41:16;9.25;;;1.70;;
51724;SDS011;37801;53.224;6.552;2023-12-20T08:43:42;10.25;;;1.52;;
51724;SDS011;37801;53.224;6.552;2023-12-20T08:46:09;13.43;;;2.20;;
51724;SDS011;37801;53.224;6.552;2023-12-20T08:48:35;18.92;;;2.67;;
51724;SDS011;37801;53.224;6.552;2023-12-20T08:51:02;9.52;;;2.03;;
51724;SDS011;37801;53.224;6.552;2023-12-20T08:53:28;8.65;;;1.85;;
51724;SDS011;37801;53.224;6.552;2023-12-20T08:55:54;6.88;;;1.30;;
51724;SDS011;37801;53.224;6.552;2023-12-20T08:58:21;10.45;;;1.15;;
51724;SDS011;37801;53.224;6.552;2023-12-20T09:00:47;11.75;;;1.70;;
51724;SDS011;37801;53.224;6.552;2023-12-20T09:03:13;8.77;;;1.90;;
51724;SDS011;37801;53.224;6.552;2023-12-20T09:05:39;10.90;;;2.00;;
51724;SDS011;37801;53.224;6.552;2023-12-20T09:08:05;16.40;;;2.97;;
51724;SDS011;37801;53.224;6.552;2023-12-20T09:10:32;13.73;;;2.20;;
51724;SDS011;37801;53.224;6.552;2023-12-20T09:12:59;17.20;;;2.38;;
51724;SDS011;37801;53.224;6.552;2023-12-20T09:15:26;14.40;;;2.15;;
51724;SDS011;37801;53.224;6.552;2023-12-20T09:17:52;18.80;;;3.15;;
51724;SDS011;37801;53.224;6.552;2023-12-20T09:20:19;13.25;;;1.77;;
51724;SDS011;37801;53.224;6.552;2023-12-20T09:22:45;11.35;;;2.83;;
51724;SDS011;37801;53.224;6.552;2023-12-20T09:25:11;14.05;;;1.80;;
51724;SDS011;37801;53.224;6.552;2023-12-20T09:27:38;9.85;;;1.88;;
51724;SDS011;37801;53.224;6.552;2023-12-20T09:30:05;7.65;;;1.67;;
51724;SDS011;37801;53.224;6.552;2023-12-20T09:32:31;7.90;;;1.38;;
51724;SDS011;37801;53.224;6.552;2023-12-20T09:34:57;10.60;;;1.70;;
51724;SDS011;37801;53.224;6.552;2023-12-20T09:37:27;11.35;;;1.75;;
51724;SDS011;37801;53.224;6.552;2023-12-20T09:39:53;7.63;;;1.67;;
51724;SDS011;37801;53.224;6.552;2023-12-20T09:42:29;8.90;;;1.40;;
51724;SDS011;37801;53.224;6.552;2023-12-20T09:45:01;6.35;;;1.73;;
51724;SDS011;37801;53.224;6.552;2023-12-20T09:47:28;7.78;;;1.30;;
51724;SDS011;37801;53.224;6.552;2023-12-20T09:49:54;10.02;;;1.75;;
51724;SDS011;37801;53.224;6.552;2023-12-20T09:52:20;10.43;;;1.42;;
51724;SDS011;37801;53.224;6.552;2023-12-20T09:54:48;14.75;;;1.65;;
51724;SDS011;37801;53.224;6.552;2023-12-20T09:57:15;13.68;;;1.77;;
51724;SDS011;37801;53.224;6.552;2023-12-20T09:59:41;15.35;;;2.25;;
51724;SDS011;37801;53.224;6.552;2023-12-20T10:02:08;7.03;;;1.55;;
51724;SDS011;37801;53.224;6.552;2023-12-20T10:04:37;11.43;;;1.52;;
51724;SDS011;37801;53.224;6.552;2023-12-20T10:07:05;14.05;;;2.50;;
51724;SDS011;37801;53.224;6.552;2023-12-20T10:09:32;10.27;;;1.75;;
51724;SDS011;37801;53.224;6.552;2023-12-20T10:11:58;10.05;;;1.67;;
51724;SDS011;37801;53.224;6.552;2023-12-20T10:14:24;23.80;;;1.98;;
51724;SDS011;37801;53.224;6.552;2023-12-20T10:16:50;15.15;;;2.13;;
51724;SDS011;37801;53.224;6.552;2023-12-20T10:19:16;11.35;;;1.73;;
51724;SDS011;37801;53.224;6.552;2023-12-20T10:21:43;19.48;;;2.67;;
51724;SDS011;37801;53.224;6.552;2023-12-20T10:24:10;12.57;;;2.10;;
51724;SDS011;37801;53.224;6.552;2023-12-20T10:26:42;11.18;;;1.88;;
51724;SDS011;37801;53.224;6.552;2023-12-20T10:29:08;8.48;;;2.00;;
51724;SDS011;37801;53.224;6.552;2023-12-20T10:31:36;10.90;;;1.92;;
51724;SDS011;37801;53.224;6.552;2023-12-20T10:34:07;10.05;;;2.10;;
51724;SDS011;37801;53.224;6.552;2023-12-20T10:36:33;12.43;;;2.47;;
51724;SDS011;37801;53.224;6.552;2023-12-20T10:39:01;12.40;;;2.70;;
51724;SDS011;37801;53.224;6.552;2023-12-20T10:41:29;11.98;;;2.33;;
51724;SDS011;37801;53.224;6.552;2023-12-20T10:43:56;12.32;;;2.53;;
51724;SDS011;37801;53.224;6.552;2023-12-20T10:46:23;10.50;;;2.33;;
51724;SDS011;37801;53.224;6.552;2023-12-20T10:48:51;14.85;;;3.40;;
51724;SDS011;37801;53.224;6.552;2023-12-20T10:51:19;13.05;;;2.35;;
51724;SDS011;37801;53.224;6.552;2023-12-20T10:53:49;11.68;;;2.25;;
51724;SDS011;37801;53.224;6.552;2023-12-20T10:56:19;17.02;;;3.40;;
51724;SDS011;37801;53.224;6.552;2023-12-20T10:58:54;22.15;;;3.60;;
51724;SDS011;37801;53.224;6.552;2023-12-20T11:01:21;14.23;;;2.38;;
51724;SDS011;37801;53.224;6.552;2023-12-20T11:03:51;24.63;;;3.45;;
51724;SDS011;37801;53.224;6.552;2023-12-20T11:14:00;18.00;;;2.83;;
51724;SDS011;37801;53.224;6.552;2023-12-20T11:16:27;22.48;;;4.22;;
51724;SDS011;37801;53.224;6.552;2023-12-20T11:18:54;19.58;;;2.92;;
51724;SDS011;37801;53.224;6.552;2023-12-20T11:21:20;17.45;;;2.72;;
51724;SDS011;37801;53.224;6.552;2023-12-20T11:23:46;18.15;;;3.20;;
51724;SDS011;37801;53.224;6.552;2023-12-20T11:26:13;22.48;;;2.67;;
51724;SDS011;37801;53.224;6.552;2023-12-20T11:28:42;17.67;;;3.47;;
51724;SDS011;37801;53.224;6.552;2023-12-20T11:31:08;14.60;;;2.63;;
51724;SDS011;37801;53.224;6.552;2023-12-20T11:33:36;17.88;;;2.60;;
51724;SDS011;37801;53.224;6.552;2023-12-20T11:36:03;18.50;;;3.08;;
51724;SDS011;37801;53.224;6.552;2023-12-20T11:38:36;26.40;;;3.10;;
51724;SDS011;37801;53.224;6.552;2023-12-20T11:41:04;19.83;;;3.92;;
51724;SDS011;37801;53.224;6.552;2023-12-20T11:46:06;18.08;;;3.35;;
51724;SDS011;37801;53.224;6.552;2023-12-20T11:48:38;19.98;;;3.50;;
51724;SDS011;37801;53.224;6.552;2023-12-20T11:51:11;15.23;;;3.10;;
51724;SDS011;37801;53.224;6.552;2023-12-20T11:53:37;17.00;;;3.20;;
51724;SDS011;37801;53.224;6.552;2023-12-20T11:56:05;16.65;;;3.08;;
51724;SDS011;37801;53.224;6.552;2023-12-20T11:58:31;21.45;;;3.47;;
51724;SDS011;37801;53.224;6.552;2023-12-20T12:00:57;19.63;;;3.75;;
51724;SDS011;37801;53.224;6.552;2023-12-20T12:03:24;27.13;;;4.20;;
51724;SDS011;37801;53.224;6.552;2023-12-20T12:05:50;15.50;;;3.15;;
51724;SDS011;37801;53.224;6.552;2023-12-20T12:08:16;17.08;;;3.33;;
51724;SDS011;37801;53.224;6.552;2023-12-20T12:10:43;17.23;;;2.75;;
51724;SDS011;37801;53.224;6.552;2023-12-20T12:13:09;22.05;;;4.03;;
51724;SDS011;37801;53.224;6.552;2023-12-20T12:15:36;19.05;;;2.92;;
51724;SDS011;37801;53.224;6.552;2023-12-20T12:18:03;18.40;;;3.60;;
51724;SDS011;37801;53.224;6.552;2023-12-20T12:20:30;18.45;;;3.42;;
51724;SDS011;37801;53.224;6.552;2023-12-20T12:25:25;14.65;;;3.10;;
51724;SDS011;37801;53.224;6.552;2023-12-20T12:27:52;17.05;;;4.18;;
51724;SDS011;37801;53.224;6.552;2023-12-20T12:30:18;20.20;;;5.00;;
51724;SDS011;37801;53.224;6.552;2023-12-20T12:32:44;22.80;;;4.60;;
51724;SDS011;37801;53.224;6.552;2023-12-20T12:35:11;17.35;;;3.53;;
51724;SDS011;37801;53.224;6.552;2023-12-20T12:37:38;20.67;;;3.90;;
51724;SDS011;37801;53.224;6.552;2023-12-20T12:40:10;19.67;;;3.53;;
51724;SDS011;37801;53.224;6.552;2023-12-20T12:42:37;14.82;;;2.50;;
51724;SDS011;37801;53.224;6.552;2023-12-20T12:45:03;18.58;;;3.03;;
51724;SDS011;37801;53.224;6.552;2023-12-20T12:47:30;11.82;;;2.40;;
51724;SDS011;37801;53.224;6.552;2023-12-20T12:49:56;11.73;;;2.20;;
51724;SDS011;37801;53.224;6.552;2023-12-20T12:52:23;11.68;;;2.88;;
51724;SDS011;37801;53.224;6.552;2023-12-20T12:54:49;19.50;;;2.83;;
51724;SDS011;37801;53.224;6.552;2023-12-20T12:57:15;21.13;;;3.10;;
51724;SDS011;37801;53.224;6.552;2023-12-20T12:59:42;13.85;;;3.00;;
51724;SDS011;37801;53.224;6.552;2023-12-20T13:02:10;11.25;;;2.58;;
51724;SDS011;37801;53.224;6.552;2023-12-20T13:04:37;16.88;;;2.95;;
51724;SDS011;37801;53.224;6.552;2023-12-20T13:07:03;17.38;;;2.60;;
51724;SDS011;37801;53.224;6.552;2023-12-20T13:09:29;12.77;;;2.90;;
51724;SDS011;37801;53.224;6.552;2023-12-20T13:11:55;16.13;;;3.08;;
51724;SDS011;37801;53.224;6.552;2023-12-20T13:14:21;11.82;;;3.40;;
51724;SDS011;37801;53.224;6.552;2023-12-20T13:16:48;15.85;;;3.60;;
51724;SDS011;37801;53.224;6.552;2023-12-20T13:19:14;19.08;;;4.53;;
51724;SDS011;37801;53.224;6.552;2023-12-20T13:21:40;23.55;;;4.82;;
51724;SDS011;37801;53.224;6.552;2023-12-20T13:24:06;17.30;;;4.10;;
51724;SDS011;37801;53.224;6.552;2023-12-20T13:26:32;18.23;;;4.32;;
51724;SDS011;37801;53.224;6.552;2023-12-20T13:28:58;26.25;;;4.88;;
51724;SDS011;37801;53.224;6.552;2023-12-20T13:31:25;20.88;;;6.32;;
51724;SDS011;37801;53.224;6.552;2023-12-20T13:33:51;22.00;;;5.60;;
51724;SDS011;37801;53.224;6.552;2023-12-20T13:36:18;19.90;;;5.25;;
51724;SDS011;37801;53.224;6.552;2023-12-20T13:38:44;22.25;;;4.10;;
51724;SDS011;37801;53.224;6.552;2023-12-20T13:41:10;13.60;;;3.65;;
51724;SDS011;37801;53.224;6.552;2023-12-20T13:43:37;20.30;;;3.25;;
51724;SDS011;37801;53.224;6.552;2023-12-20T13:46:03;12.13;;;2.58;;
51724;SDS011;37801;53.224;6.552;2023-12-20T13:48:29;15.60;;;2.22;;
51724;SDS011;37801;53.224;6.552;2023-12-20T13:50:55;10.18;;;2.03;;
51724;SDS011;37801;53.224;6.552;2023-12-20T13:53:22;13.43;;;2.25;;
51724;SDS011;37801;53.224;6.552;2023-12-20T13:55:48;16.73;;;2.42;;
51724;SDS011;37801;53.224;6.552;2023-12-20T13:58:14;12.95;;;2.05;;
51724;SDS011;37801;53.224;6.552;2023-12-20T14:00:41;15.75;;;2.88;;
51724;SDS011;37801;53.224;6.552;2023-12-20T14:03:07;9.82;;;1.90;;
51724;SDS011;37801;53.224;6.552;2023-12-20T14:05:35;8.50;;;2.13;;
51724;SDS011;37801;53.224;6.552;2023-12-20T14:08:01;9.70;;;2.50;;
51724;SDS011;37801;53.224;6.552;2023-12-20T14:10:27;11.57;;;2.90;;
51724;SDS011;37801;53.224;6.552;2023-12-20T14:12:54;11.43;;;2.80;;
51724;SDS011;37801;53.224;6.552;2023-12-20T14:15:20;12.02;;;4.32;;
51724;SDS011;37801;53.224;6.552;2023-12-20T14:17:46;12.88;;;4.63;;
51724;SDS011;37801;53.224;6.552;2023-12-20T14:20:12;10.35;;;3.75;;
51724;SDS011;37801;53.224;6.552;2023-12-20T14:22:38;15.15;;;2.90;;
51724;SDS011;37801;53.224;6.552;2023-12-20T14:25:10;11.10;;;2.97;;
51724;SDS011;37801;53.224;6.552;2023-12-20T14:27:37;8.55;;;2.67;;
51724;SDS011;37801;53.224;6.552;2023-12-20T14:30:03;7.15;;;2.35;;
51724;SDS011;37801;53.224;6.552;2023-12-20T14:32:30;9.40;;;2.05;;
51724;SDS011;37801;53.224;6.552;2023-12-20T14:34:56;6.10;;;1.50;;
51724;SDS011;37801;53.224;6.552;2023-12-20T14:37:23;11.88;;;1.75;;
51724;SDS011;37801;53.224;6.552;2023-12-20T14:39:49;8.15;;;1.88;;
51724;SDS011;37801;53.224;6.552;2023-12-20T14:42:15;8.65;;;2.10;;
51724;SDS011;37801;53.224;6.552;2023-12-20T14:44:42;9.75;;;1.67;;